PWSweather.com
Personal Weather Stations
Station Observations
KCARIDGE3
Ridgecrest, CA 93555

Ridgecrest, CA 93555

Lat: 35.62083817, Lon: -117.6733017

Elevation: 2315

Station Type:

High Low Average
Temperature 57.6°F14.2°F 41.7°F5.4°F 49.0°F9.4°F
Dew Point 43.0°F6.1°F 33.6°F0.9°F 38.2°F3.4°F
Winds 11.0 mph SSE17.7 mph SSE Calm Calm 3.7 mph 6.0 mph
Wind Gusts 15.0 mph24.1 mph -- 3.6 mph5.8 mph
Humidity 86% 42% 68%
Pressure 0.00 in0.00 in 0.00 in0.00 in -
Precipitation 1.11 in28.20 in - -
Hour Temp Dew Point Humidity Winds Wind Gusts Pressure Precip Precip Rate Daily Precip Total
12:02 AM 48.9°F9.4°C 37.2°F2.9°C 64% 6.9 mph SW11.1 kmh SW 4.9 mph7.9 kmh -338605.1 mb 0.00 in0.0 mm 0.00 in/hr0.0 mm/hr 0.00 in0.0 mm
12:07 AM 48.7°F9.3°C 37.0°F2.8°C 64% 6.9 mph SW11.1 kmh SW 11.0 mph17.7 kmh -338605.1 mb 0.00 in0.0 mm 0.00 in/hr0.0 mm/hr 0.00 in0.0 mm
12:12 AM 48.7°F9.3°C 37.9°F3.3°C 66% 8.1 mph SSE13.0 kmh SSE 11.0 mph17.7 kmh -338605.1 mb 0.00 in0.0 mm 0.00 in/hr0.0 mm/hr 0.00 in0.0 mm
12:17 AM 48.6°F9.2°C 37.8°F3.2°C 66% 8.1 mph SSW13.0 kmh SSW 6.9 mph11.1 kmh -338605.1 mb 0.00 in0.0 mm 0.00 in/hr0.0 mm/hr 0.00 in0.0 mm
12:22 AM 48.4°F9.1°C 37.6°F3.1°C 66% 8.1 mph SSW13.0 kmh SSW 6.0 mph9.7 kmh -338605.1 mb 0.00 in0.0 mm 0.00 in/hr0.0 mm/hr 0.00 in0.0 mm
12:27 AM 48.0°F8.9°C 37.2°F2.9°C 66% 8.1 mph SW13.0 kmh SW 6.9 mph11.1 kmh -338605.1 mb 0.00 in0.0 mm 0.00 in/hr0.0 mm/hr 0.00 in0.0 mm
12:32 AM 48.0°F8.9°C 37.9°F3.3°C 68% 6.9 mph SSW11.1 kmh SSW 4.9 mph7.9 kmh -338605.1 mb 0.00 in0.0 mm 0.00 in/hr0.0 mm/hr 0.00 in0.0 mm
12:37 AM 48.2°F9.0°C 37.8°F3.2°C 67% 6.9 mph S11.1 kmh S 6.0 mph9.7 kmh -338605.1 mb 0.00 in0.0 mm 0.00 in/hr0.0 mm/hr 0.00 in0.0 mm
12:42 AM 48.4°F9.1°C 37.9°F3.3°C 67% 8.1 mph SW13.0 kmh SW 8.9 mph14.3 kmh -338605.1 mb 0.00 in0.0 mm 0.00 in/hr0.0 mm/hr 0.00 in0.0 mm
12:47 AM 48.2°F9.0°C 37.8°F3.2°C 67% 6.9 mph SSW11.1 kmh SSW 6.9 mph11.1 kmh -338605.1 mb 0.00 in0.0 mm 0.00 in/hr0.0 mm/hr 0.00 in0.0 mm
12:52 AM 48.0°F8.9°C 37.2°F2.9°C 66% 6.0 mph SSW9.7 kmh SSW 8.9 mph14.3 kmh -338605.1 mb 0.00 in0.0 mm 0.00 in/hr0.0 mm/hr 0.00 in0.0 mm
12:57 AM 47.8°F8.8°C 37.4°F3.0°C 67% 6.9 mph SW11.1 kmh SW 8.9 mph14.3 kmh -338605.1 mb 0.00 in0.0 mm 0.00 in/hr0.0 mm/hr 0.00 in0.0 mm
01:02 AM 47.8°F8.8°C 37.8°F3.2°C 68% 6.9 mph SW11.1 kmh SW 6.0 mph9.7 kmh -338605.1 mb 0.00 in0.0 mm 0.00 in/hr0.0 mm/hr 0.00 in0.0 mm
01:07 AM 47.8°F8.8°C 37.4°F3.0°C 67% 6.0 mph SW9.7 kmh SW 4.9 mph7.9 kmh -338605.1 mb 0.00 in0.0 mm 0.00 in/hr0.0 mm/hr 0.00 in0.0 mm
01:12 AM 47.7°F8.7°C 37.2°F2.9°C 67% 4.9 mph SW7.9 kmh SW 6.0 mph9.7 kmh -338605.1 mb 0.00 in0.0 mm 0.00 in/hr0.0 mm/hr 0.00 in0.0 mm
01:17 AM 47.5°F8.6°C 37.0°F2.8°C 67% 6.0 mph SSW9.7 kmh SSW 6.0 mph9.7 kmh -338605.1 mb 0.00 in0.0 mm 0.00 in/hr0.0 mm/hr 0.00 in0.0 mm
01:22 AM 47.5°F8.6°C 37.0°F2.8°C 67% 6.0 mph SSW9.7 kmh SSW 4.9 mph7.9 kmh -338605.1 mb 0.00 in0.0 mm 0.00 in/hr0.0 mm/hr 0.00 in0.0 mm
01:27 AM 47.5°F8.6°C 37.0°F2.8°C 67% 6.0 mph SSW9.7 kmh SSW 2.0 mph3.2 kmh -338605.1 mb 0.00 in0.0 mm 0.00 in/hr0.0 mm/hr 0.00 in0.0 mm
01:32 AM 47.5°F8.6°C 37.0°F2.8°C 67% 4.9 mph S7.9 kmh S 2.9 mph4.7 kmh -338605.1 mb 0.00 in0.0 mm 0.00 in/hr0.0 mm/hr 0.00 in0.0 mm
01:37 AM 47.5°F8.6°C 36.7°F2.6°C 66% 2.9 mph S4.7 kmh S -- -338605.1 mb 0.00 in0.0 mm 0.00 in/hr0.0 mm/hr 0.00 in0.0 mm
01:42 AM 47.5°F8.6°C 37.0°F2.8°C 67% 2.0 mph SSE3.2 kmh SSE 0.9 mph1.4 kmh -338605.1 mb 0.00 in0.0 mm 0.00 in/hr0.0 mm/hr 0.00 in0.0 mm
01:47 AM 47.5°F8.6°C 37.0°F2.8°C 67% 2.0 mph SSW3.2 kmh SSW 2.9 mph4.7 kmh -338605.1 mb 0.00 in0.0 mm 0.00 in/hr0.0 mm/hr 0.00 in0.0 mm
01:52 AM 47.5°F8.6°C 36.7°F2.6°C 66% 2.0 mph SW3.2 kmh SW 2.0 mph3.2 kmh -338605.1 mb 0.00 in0.0 mm 0.00 in/hr0.0 mm/hr 0.00 in0.0 mm
01:57 AM 47.3°F8.5°C 36.5°F2.5°C 66% 2.0 mph SSW3.2 kmh SSW 2.9 mph4.7 kmh -338605.1 mb 0.00 in0.0 mm 0.00 in/hr0.0 mm/hr 0.00 in0.0 mm
02:02 AM 47.5°F8.6°C 37.0°F2.8°C 67% 2.9 mph S4.7 kmh S -- -338605.1 mb 0.00 in0.0 mm 0.00 in/hr0.0 mm/hr 0.00 in0.0 mm
02:07 AM 47.5°F8.6°C 37.0°F2.8°C 67% 2.0 mph S3.2 kmh S 2.0 mph3.2 kmh -338605.1 mb 0.00 in0.0 mm 0.00 in/hr0.0 mm/hr 0.00 in0.0 mm
02:12 AM 47.5°F8.6°C 37.0°F2.8°C 67% 0.9 mph S1.4 kmh S -- -338605.1 mb 0.00 in0.0 mm 0.00 in/hr0.0 mm/hr 0.00 in0.0 mm
02:17 AM 47.3°F8.5°C 36.9°F2.7°C 67% 0.9 mph S1.4 kmh S 2.0 mph3.2 kmh -338605.1 mb 0.00 in0.0 mm 0.00 in/hr0.0 mm/hr 0.00 in0.0 mm
02:22 AM 46.9°F8.3°C 36.5°F2.5°C 67% 0.9 mph W1.4 kmh W 2.9 mph4.7 kmh -338605.1 mb 0.00 in0.0 mm 0.00 in/hr0.0 mm/hr 0.00 in0.0 mm
02:27 AM 46.6°F8.1°C 36.5°F2.5°C 68% 2.9 mph W4.7 kmh W 2.9 mph4.7 kmh -338605.1 mb 0.00 in0.0 mm 0.00 in/hr0.0 mm/hr 0.00 in0.0 mm
02:32 AM 46.8°F8.2°C 36.7°F2.6°C 68% 2.9 mph W4.7 kmh W 2.9 mph4.7 kmh -338605.1 mb 0.00 in0.0 mm 0.00 in/hr0.0 mm/hr 0.00 in0.0 mm
02:37 AM 46.4°F8.0°C 36.5°F2.5°C 68% 2.0 mph W3.2 kmh W 2.9 mph4.7 kmh -338605.1 mb 0.00 in0.0 mm 0.00 in/hr0.0 mm/hr 0.00 in0.0 mm
02:42 AM 46.4°F8.0°C 36.9°F2.7°C 69% 2.9 mph SW4.7 kmh SW 2.9 mph4.7 kmh -338605.1 mb 0.00 in0.0 mm 0.00 in/hr0.0 mm/hr 0.00 in0.0 mm
02:47 AM 46.4°F8.0°C 36.9°F2.7°C 69% 4.0 mph SSW6.4 kmh SSW 2.9 mph4.7 kmh -338605.1 mb 0.00 in0.0 mm 0.00 in/hr0.0 mm/hr 0.00 in0.0 mm
02:52 AM 46.6°F8.1°C 36.5°F2.5°C 68% 4.0 mph S6.4 kmh S 4.9 mph7.9 kmh -338605.1 mb 0.00 in0.0 mm 0.00 in/hr0.0 mm/hr 0.00 in0.0 mm
02:57 AM 46.6°F8.1°C 36.5°F2.5°C 68% 4.0 mph S6.4 kmh S 4.9 mph7.9 kmh -338605.1 mb 0.00 in0.0 mm 0.00 in/hr0.0 mm/hr 0.00 in0.0 mm
03:02 AM 46.9°F8.3°C 36.9°F2.7°C 68% 4.9 mph SSW7.9 kmh SSW 4.0 mph6.4 kmh -338605.1 mb 0.00 in0.0 mm 0.00 in/hr0.0 mm/hr 0.00 in0.0 mm
03:07 AM 46.9°F8.3°C 36.9°F2.7°C 68% 4.9 mph SW7.9 kmh SW 4.0 mph6.4 kmh -338605.1 mb 0.00 in0.0 mm 0.00 in/hr0.0 mm/hr 0.00 in0.0 mm
03:12 AM 46.9°F8.3°C 36.5°F2.5°C 67% 4.0 mph SW6.4 kmh SW 2.0 mph3.2 kmh -338605.1 mb 0.00 in0.0 mm 0.00 in/hr0.0 mm/hr 0.00 in0.0 mm
03:17 AM 46.9°F8.3°C 36.5°F2.5°C 67% 4.0 mph SW6.4 kmh SW 4.9 mph7.9 kmh -338605.1 mb 0.00 in0.0 mm 0.00 in/hr0.0 mm/hr 0.00 in0.0 mm
03:22 AM 47.1°F8.4°C 36.7°F2.6°C 67% 4.0 mph WSW6.4 kmh WSW 6.0 mph9.7 kmh -338605.1 mb 0.00 in0.0 mm 0.00 in/hr0.0 mm/hr 0.00 in0.0 mm
03:27 AM 47.3°F8.5°C 36.9°F2.7°C 67% 4.9 mph WSW7.9 kmh WSW 2.9 mph4.7 kmh -338605.1 mb 0.00 in0.0 mm 0.00 in/hr0.0 mm/hr 0.00 in0.0 mm
03:32 AM 47.5°F8.6°C 37.0°F2.8°C 67% 4.0 mph WSW6.4 kmh WSW 0.9 mph1.4 kmh -338605.1 mb 0.00 in0.0 mm 0.00 in/hr0.0 mm/hr 0.00 in0.0 mm
03:37 AM 47.5°F8.6°C 37.0°F2.8°C 67% 2.0 mph SW3.2 kmh SW 2.0 mph3.2 kmh -338605.1 mb 0.00 in0.0 mm 0.00 in/hr0.0 mm/hr 0.00 in0.0 mm
03:42 AM 47.3°F8.5°C 36.9°F2.7°C 67% 2.0 mph SW3.2 kmh SW 6.0 mph9.7 kmh -338605.1 mb 0.00 in0.0 mm 0.00 in/hr0.0 mm/hr 0.00 in0.0 mm
03:47 AM 47.1°F8.4°C 36.7°F2.6°C 67% 2.9 mph SW4.7 kmh SW 4.9 mph7.9 kmh -338605.1 mb 0.00 in0.0 mm 0.00 in/hr0.0 mm/hr 0.00 in0.0 mm
03:52 AM 46.9°F8.3°C 36.1°F2.3°C 66% 4.0 mph SW6.4 kmh SW 2.9 mph4.7 kmh -338605.1 mb 0.00 in0.0 mm 0.00 in/hr0.0 mm/hr 0.00 in0.0 mm
03:57 AM 46.8°F8.2°C 36.0°F2.2°C 66% 4.0 mph WSW6.4 kmh WSW 4.0 mph6.4 kmh -338605.1 mb 0.00 in0.0 mm 0.00 in/hr0.0 mm/hr 0.00 in0.0 mm
04:02 AM 46.8°F8.2°C 35.6°F2.0°C 65% 2.9 mph WSW4.7 kmh WSW 2.9 mph4.7 kmh -338605.1 mb 0.00 in0.0 mm 0.00 in/hr0.0 mm/hr 0.00 in0.0 mm
04:07 AM 46.6°F8.1°C 35.4°F1.9°C 65% 2.9 mph WSW4.7 kmh WSW 2.0 mph3.2 kmh -338605.1 mb 0.00 in0.0 mm 0.00 in/hr0.0 mm/hr 0.00 in0.0 mm
04:12 AM 46.2°F7.9°C 35.1°F1.7°C 65% 2.9 mph SW4.7 kmh SW 2.9 mph4.7 kmh -338605.1 mb 0.00 in0.0 mm 0.00 in/hr0.0 mm/hr 0.00 in0.0 mm
04:17 AM 46.0°F7.8°C 34.9°F1.6°C 65% 2.9 mph SW4.7 kmh SW 2.9 mph4.7 kmh -338605.1 mb 0.00 in0.0 mm 0.00 in/hr0.0 mm/hr 0.00 in0.0 mm
04:22 AM 45.9°F7.7°C 34.7°F1.5°C 65% 4.0 mph SW6.4 kmh SW 2.9 mph4.7 kmh -338605.1 mb 0.00 in0.0 mm 0.00 in/hr0.0 mm/hr 0.00 in0.0 mm
04:27 AM 45.7°F7.6°C 35.1°F1.7°C 66% 2.9 mph WSW4.7 kmh WSW -- -338605.1 mb 0.00 in0.0 mm 0.00 in/hr0.0 mm/hr 0.00 in0.0 mm
04:32 AM 45.3°F7.4°C 34.7°F1.5°C 66% 0.9 mph WSW1.4 kmh WSW -- -338605.1 mb 0.00 in0.0 mm 0.00 in/hr0.0 mm/hr 0.00 in0.0 mm
04:37 AM 45.1°F7.3°C 34.5°F1.4°C 66% Calm Calm -- -338605.1 mb 0.00 in0.0 mm 0.00 in/hr0.0 mm/hr 0.00 in0.0 mm
04:42 AM 45.0°F7.2°C 34.3°F1.3°C 66% 0.9 mph SW1.4 kmh SW 0.9 mph1.4 kmh -338605.1 mb 0.00 in0.0 mm 0.00 in/hr0.0 mm/hr 0.00 in0.0 mm
04:47 AM 45.0°F7.2°C 34.7°F1.5°C 67% 0.9 mph S1.4 kmh S 2.0 mph3.2 kmh -338605.1 mb 0.00 in0.0 mm 0.00 in/hr0.0 mm/hr 0.00 in0.0 mm
04:52 AM 44.8°F7.1°C 34.9°F1.6°C 68% 2.0 mph S3.2 kmh S 2.9 mph4.7 kmh -338605.1 mb 0.00 in0.0 mm 0.00 in/hr0.0 mm/hr 0.00 in0.0 mm
04:57 AM 44.8°F7.1°C 34.9°F1.6°C 68% 2.9 mph S4.7 kmh S 2.0 mph3.2 kmh -338605.1 mb 0.00 in0.0 mm 0.00 in/hr0.0 mm/hr 0.00 in0.0 mm
05:02 AM 44.8°F7.1°C 34.9°F1.6°C 68% 2.0 mph S3.2 kmh S -- -338605.1 mb 0.00 in0.0 mm 0.00 in/hr0.0 mm/hr 0.00 in0.0 mm
05:07 AM 44.2°F6.8°C 34.3°F1.3°C 68% 0.9 mph SSW1.4 kmh SSW 2.9 mph4.7 kmh -338605.1 mb 0.00 in0.0 mm 0.00 in/hr0.0 mm/hr 0.00 in0.0 mm
05:12 AM 44.1°F6.7°C 34.5°F1.4°C 69% 2.0 mph WNW3.2 kmh WNW 4.9 mph7.9 kmh -338605.1 mb 0.00 in0.0 mm 0.00 in/hr0.0 mm/hr 0.00 in0.0 mm
05:17 AM 43.9°F6.6°C 34.3°F1.3°C 69% 4.0 mph WNW6.4 kmh WNW 2.9 mph4.7 kmh -338605.1 mb 0.00 in0.0 mm 0.00 in/hr0.0 mm/hr 0.00 in0.0 mm
05:22 AM 43.3°F6.3°C 34.2°F1.2°C 70% 4.0 mph W6.4 kmh W 2.0 mph3.2 kmh -338605.1 mb 0.00 in0.0 mm 0.00 in/hr0.0 mm/hr 0.00 in0.0 mm
05:27 AM 43.3°F6.3°C 34.2°F1.2°C 70% 2.9 mph W4.7 kmh W -- -338605.1 mb 0.00 in0.0 mm 0.00 in/hr0.0 mm/hr 0.00 in0.0 mm
05:32 AM 43.2°F6.2°C 34.0°F1.1°C 70% 2.0 mph WNW3.2 kmh WNW 0.9 mph1.4 kmh -338605.1 mb 0.00 in0.0 mm 0.00 in/hr0.0 mm/hr 0.00 in0.0 mm
05:37 AM 43.0°F6.1°C 34.5°F1.4°C 72% 0.9 mph WNW1.4 kmh WNW -- -338605.1 mb 0.00 in0.0 mm 0.00 in/hr0.0 mm/hr 0.00 in0.0 mm
05:42 AM 43.0°F6.1°C 34.2°F1.2°C 71% Calm Calm 0.9 mph1.4 kmh -338605.1 mb 0.00 in0.0 mm 0.00 in/hr0.0 mm/hr 0.00 in0.0 mm
05:47 AM 42.8°F6.0°C 34.0°F1.1°C 71% 0.9 mph W1.4 kmh W 2.9 mph4.7 kmh -338605.1 mb 0.00 in0.0 mm 0.00 in/hr0.0 mm/hr 0.00 in0.0 mm
05:52 AM 42.6°F5.9°C 34.2°F1.2°C 72% 2.0 mph WNW3.2 kmh WNW 2.9 mph4.7 kmh -338605.1 mb 0.00 in0.0 mm 0.00 in/hr0.0 mm/hr 0.00 in0.0 mm
05:57 AM 42.4°F5.8°C 34.0°F1.1°C 72% 2.0 mph WNW3.2 kmh WNW 2.0 mph3.2 kmh -338605.1 mb 0.00 in0.0 mm 0.00 in/hr0.0 mm/hr 0.00 in0.0 mm
06:02 AM 42.3°F5.7°C 33.8°F1.0°C 72% 2.0 mph WNW3.2 kmh WNW 2.0 mph3.2 kmh -338605.1 mb 0.00 in0.0 mm 0.00 in/hr0.0 mm/hr 0.00 in0.0 mm
06:07 AM 42.1°F5.6°C 34.0°F1.1°C 73% 0.9 mph WNW1.4 kmh WNW -- -338605.1 mb 0.00 in0.0 mm 0.00 in/hr0.0 mm/hr 0.00 in0.0 mm
06:12 AM 41.9°F5.5°C 33.8°F1.0°C 73% Calm Calm -- -338605.1 mb 0.00 in0.0 mm 0.00 in/hr0.0 mm/hr 0.00 in0.0 mm
06:17 AM 41.9°F5.5°C 33.8°F1.0°C 73% Calm Calm -- -338605.1 mb 0.00 in0.0 mm 0.00 in/hr0.0 mm/hr 0.00 in0.0 mm
06:22 AM 41.9°F5.5°C 33.8°F1.0°C 73% 0.9 mph W1.4 kmh W 2.0 mph3.2 kmh -338605.1 mb 0.00 in0.0 mm 0.00 in/hr0.0 mm/hr 0.00 in0.0 mm
06:27 AM 42.1°F5.6°C 34.0°F1.1°C 73% 2.0 mph SW3.2 kmh SW 2.0 mph3.2 kmh -338605.1 mb 0.00 in0.0 mm 0.00 in/hr0.0 mm/hr 0.00 in0.0 mm
06:32 AM 42.1°F5.6°C 34.0°F1.1°C 73% 2.0 mph SW3.2 kmh SW -- -338605.1 mb 0.00 in0.0 mm 0.00 in/hr0.0 mm/hr 0.00 in0.0 mm
06:37 AM 42.1°F5.6°C 34.3°F1.3°C 74% 0.9 mph SW1.4 kmh SW -- -338605.1 mb 0.00 in0.0 mm 0.00 in/hr0.0 mm/hr 0.00 in0.0 mm
06:42 AM 41.7°F5.4°C 33.6°F0.9°C 73% 0.9 mph WSW1.4 kmh WSW -- -338605.1 mb 0.00 in0.0 mm 0.00 in/hr0.0 mm/hr 0.00 in0.0 mm
06:47 AM 41.7°F5.4°C 34.0°F1.1°C 74% 0.9 mph WSW1.4 kmh WSW 2.9 mph4.7 kmh -338605.1 mb 0.00 in0.0 mm 0.00 in/hr0.0 mm/hr 0.00 in0.0 mm
06:52 AM 42.1°F5.6°C 34.3°F1.3°C 74% 2.0 mph S3.2 kmh S 6.9 mph11.1 kmh -338605.1 mb 0.00 in0.0 mm 0.00 in/hr0.0 mm/hr 0.00 in0.0 mm
06:57 AM 42.6°F5.9°C 34.9°F1.6°C 74% 4.0 mph S6.4 kmh S 0.9 mph1.4 kmh -338605.1 mb 0.00 in0.0 mm 0.00 in/hr0.0 mm/hr 0.00 in0.0 mm
07:02 AM 42.8°F6.0°C 34.7°F1.5°C 73% 2.9 mph S4.7 kmh S 0.9 mph1.4 kmh -338605.1 mb 0.00 in0.0 mm 0.00 in/hr0.0 mm/hr 0.00 in0.0 mm
07:07 AM 43.0°F6.1°C 34.9°F1.6°C 73% 2.0 mph SSW3.2 kmh SSW 2.9 mph4.7 kmh -338605.1 mb 0.00 in0.0 mm 0.00 in/hr0.0 mm/hr 0.00 in0.0 mm
07:12 AM 43.2°F6.2°C 35.1°F1.7°C 73% 2.9 mph S4.7 kmh S 2.9 mph4.7 kmh -338605.1 mb 0.00 in0.0 mm 0.00 in/hr0.0 mm/hr 0.00 in0.0 mm
07:17 AM 43.5°F6.4°C 35.4°F1.9°C 73% 2.9 mph S4.7 kmh S 4.9 mph7.9 kmh -338605.1 mb 0.00 in0.0 mm 0.00 in/hr0.0 mm/hr 0.00 in0.0 mm
07:22 AM 44.2°F6.8°C 35.8°F2.1°C 72% 2.9 mph SSE4.7 kmh SSE 4.0 mph6.4 kmh -338605.1 mb 0.00 in0.0 mm 0.00 in/hr0.0 mm/hr 0.00 in0.0 mm
07:27 AM 44.6°F7.0°C 35.8°F2.1°C 71% 2.9 mph WSW4.7 kmh WSW 2.9 mph4.7 kmh -338605.1 mb 0.00 in0.0 mm 0.00 in/hr0.0 mm/hr 0.00 in0.0 mm
07:32 AM 45.0°F7.2°C 36.1°F2.3°C 71% 2.9 mph WSW4.7 kmh WSW 2.0 mph3.2 kmh -338605.1 mb 0.00 in0.0 mm 0.00 in/hr0.0 mm/hr 0.00 in0.0 mm
07:37 AM 45.3°F7.4°C 36.1°F2.3°C 70% 2.9 mph WSW4.7 kmh WSW 2.9 mph4.7 kmh -338605.1 mb 0.00 in0.0 mm 0.00 in/hr0.0 mm/hr 0.00 in0.0 mm
07:42 AM 45.7°F7.6°C 36.1°F2.3°C 69% 2.9 mph SW4.7 kmh SW 2.9 mph4.7 kmh -338605.1 mb 0.00 in0.0 mm 0.00 in/hr0.0 mm/hr 0.00 in0.0 mm
07:47 AM 46.0°F7.8°C 36.5°F2.5°C 69% 4.0 mph WSW6.4 kmh WSW 2.9 mph4.7 kmh -338605.1 mb 0.00 in0.0 mm 0.00 in/hr0.0 mm/hr 0.00 in0.0 mm
07:52 AM 46.6°F8.1°C 36.5°F2.5°C 68% 2.9 mph WSW4.7 kmh WSW 2.0 mph3.2 kmh -338605.1 mb 0.00 in0.0 mm 0.00 in/hr0.0 mm/hr 0.00 in0.0 mm
07:57 AM 46.8°F8.2°C 36.7°F2.6°C 68% 2.9 mph WSW4.7 kmh WSW 2.9 mph4.7 kmh -338605.1 mb 0.00 in0.0 mm 0.00 in/hr0.0 mm/hr 0.00 in0.0 mm
08:02 AM 47.7°F8.7°C 37.2°F2.9°C 67% 2.9 mph WSW4.7 kmh WSW 2.9 mph4.7 kmh -338605.1 mb 0.00 in0.0 mm 0.00 in/hr0.0 mm/hr 0.00 in0.0 mm
08:07 AM 48.0°F8.9°C 37.2°F2.9°C 66% 2.9 mph SW4.7 kmh SW 0.9 mph1.4 kmh -338605.1 mb 0.00 in0.0 mm 0.00 in/hr0.0 mm/hr 0.00 in0.0 mm
08:12 AM 48.7°F9.3°C 37.0°F2.8°C 64% 2.9 mph SSW4.7 kmh SSW 0.9 mph1.4 kmh -338605.1 mb 0.00 in0.0 mm 0.00 in/hr0.0 mm/hr 0.00 in0.0 mm
08:17 AM 49.3°F9.6°C 37.6°F3.1°C 64% 2.0 mph SSW3.2 kmh SSW 4.0 mph6.4 kmh -338605.1 mb 0.00 in0.0 mm 0.00 in/hr0.0 mm/hr 0.00 in0.0 mm
08:22 AM 49.6°F9.8°C 37.6°F3.1°C 63% 2.0 mph WSW3.2 kmh WSW 6.0 mph9.7 kmh -338605.1 mb 0.00 in0.0 mm 0.00 in/hr0.0 mm/hr 0.00 in0.0 mm
08:27 AM 50.4°F10.2°C 37.8°F3.2°C 62% 2.9 mph SW4.7 kmh SW -- -338605.1 mb 0.00 in0.0 mm 0.00 in/hr0.0 mm/hr 0.00 in0.0 mm
08:32 AM 50.2°F10.1°C 37.2°F2.9°C 61% 2.0 mph WSW3.2 kmh WSW 0.9 mph1.4 kmh -338605.1 mb 0.00 in0.0 mm 0.00 in/hr0.0 mm/hr 0.00 in0.0 mm
08:37 AM 50.2°F10.1°C 37.6°F3.1°C 62% 2.0 mph WSW3.2 kmh WSW -- -338605.1 mb 0.00 in0.0 mm 0.00 in/hr0.0 mm/hr 0.00 in0.0 mm
08:42 AM 50.9°F10.5°C 37.6°F3.1°C 60% 0.9 mph WSW1.4 kmh WSW -- -338605.1 mb 0.00 in0.0 mm 0.00 in/hr0.0 mm/hr 0.00 in0.0 mm
08:47 AM 51.1°F10.6°C 36.9°F2.7°C 58% 0.9 mph WSW1.4 kmh WSW 2.9 mph4.7 kmh -338605.1 mb 0.00 in0.0 mm 0.00 in/hr0.0 mm/hr 0.00 in0.0 mm
08:52 AM 51.1°F10.6°C 36.9°F2.7°C 58% 2.0 mph W3.2 kmh W 2.0 mph3.2 kmh -338605.1 mb 0.00 in0.0 mm 0.00 in/hr0.0 mm/hr 0.00 in0.0 mm
08:57 AM 51.3°F10.7°C 36.5°F2.5°C 57% 2.0 mph W3.2 kmh W 0.9 mph1.4 kmh -338605.1 mb 0.00 in0.0 mm 0.00 in/hr0.0 mm/hr 0.00 in0.0 mm
09:02 AM 51.3°F10.7°C 36.5°F2.5°C 57% 2.0 mph WNW3.2 kmh WNW -- -338605.1 mb 0.00 in0.0 mm 0.00 in/hr0.0 mm/hr 0.00 in0.0 mm
09:07 AM 51.3°F10.7°C 36.5°F2.5°C 57% 2.0 mph NNE3.2 kmh NNE 2.0 mph3.2 kmh -338605.1 mb 0.00 in0.0 mm 0.00 in/hr0.0 mm/hr 0.00 in0.0 mm
09:12 AM 51.6°F10.9°C 36.9°F2.7°C 57% 0.9 mph NNE1.4 kmh NNE 2.0 mph3.2 kmh -338605.1 mb 0.00 in0.0 mm 0.00 in/hr0.0 mm/hr 0.00 in0.0 mm
09:17 AM 52.0°F11.1°C 36.9°F2.7°C 56% 0.9 mph NNE1.4 kmh NNE 2.0 mph3.2 kmh -338605.1 mb 0.00 in0.0 mm 0.00 in/hr0.0 mm/hr 0.00 in0.0 mm
09:22 AM 51.8°F11.0°C 36.7°F2.6°C 56% 2.0 mph NNE3.2 kmh NNE 2.0 mph3.2 kmh -338605.1 mb 0.00 in0.0 mm 0.00 in/hr0.0 mm/hr 0.00 in0.0 mm
09:27 AM 51.6°F10.9°C 36.9°F2.7°C 57% 2.0 mph NE3.2 kmh NE 4.0 mph6.4 kmh -338605.1 mb 0.00 in0.0 mm 0.00 in/hr0.0 mm/hr 0.00 in0.0 mm
09:32 AM 51.8°F11.0°C 37.6°F3.1°C 58% 2.9 mph NE4.7 kmh NE 2.9 mph4.7 kmh -338605.1 mb 0.00 in0.0 mm 0.00 in/hr0.0 mm/hr 0.00 in0.0 mm
09:37 AM 52.0°F11.1°C 37.6°F3.1°C 58% 2.9 mph NE4.7 kmh NE 2.9 mph4.7 kmh -338605.1 mb 0.00 in0.0 mm 0.00 in/hr0.0 mm/hr 0.00 in0.0 mm
09:42 AM 52.0°F11.1°C 36.9°F2.7°C 56% 2.9 mph NE4.7 kmh NE 2.9 mph4.7 kmh -338605.1 mb 0.00 in0.0 mm 0.00 in/hr0.0 mm/hr 0.00 in0.0 mm
09:47 AM 51.8°F11.0°C 36.7°F2.6°C 56% 2.0 mph NE3.2 kmh NE 2.9 mph4.7 kmh -338605.1 mb 0.00 in0.0 mm 0.00 in/hr0.0 mm/hr 0.00 in0.0 mm
09:52 AM 52.9°F11.6°C 37.6°F3.1°C 56% 2.0 mph NNE3.2 kmh NNE 2.9 mph4.7 kmh -338605.1 mb 0.00 in0.0 mm 0.00 in/hr0.0 mm/hr 0.00 in0.0 mm
09:57 AM 53.1°F11.7°C 37.4°F3.0°C 55% 2.0 mph NNE3.2 kmh NNE 0.9 mph1.4 kmh -338605.1 mb 0.00 in0.0 mm 0.00 in/hr0.0 mm/hr 0.00 in0.0 mm
10:02 AM 54.0°F12.2°C 36.7°F2.6°C 52% 2.0 mph NNE3.2 kmh NNE 4.0 mph6.4 kmh -338605.1 mb 0.00 in0.0 mm 0.00 in/hr0.0 mm/hr 0.00 in0.0 mm
10:07 AM 53.8°F12.1°C 36.5°F2.5°C 52% 2.9 mph NW4.7 kmh NW 2.9 mph4.7 kmh -338605.1 mb 0.00 in0.0 mm 0.00 in/hr0.0 mm/hr 0.00 in0.0 mm
10:12 AM 53.8°F12.1°C 36.5°F2.5°C 52% 2.9 mph N4.7 kmh N 2.9 mph4.7 kmh -338605.1 mb 0.00 in0.0 mm 0.00 in/hr0.0 mm/hr 0.00 in0.0 mm
10:17 AM 53.4°F11.9°C 36.3°F2.4°C 52% 2.0 mph N3.2 kmh N -- -338605.1 mb 0.00 in0.0 mm 0.00 in/hr0.0 mm/hr 0.00 in0.0 mm
10:22 AM 53.2°F11.8°C 36.1°F2.3°C 52% 0.9 mph N1.4 kmh N -- -338605.1 mb 0.00 in0.0 mm 0.00 in/hr0.0 mm/hr 0.00 in0.0 mm
10:27 AM 53.8°F12.1°C 36.5°F2.5°C 52% Calm Calm 2.0 mph3.2 kmh -338605.1 mb 0.00 in0.0 mm 0.00 in/hr0.0 mm/hr 0.00 in0.0 mm
10:32 AM 54.1°F12.3°C 36.3°F2.4°C 51% 0.9 mph N1.4 kmh N 2.9 mph4.7 kmh -338605.1 mb 0.00 in0.0 mm 0.00 in/hr0.0 mm/hr 0.00 in0.0 mm
10:37 AM 54.3°F12.4°C 35.6°F2.0°C 49% 2.0 mph NE3.2 kmh NE 6.0 mph9.7 kmh -338605.1 mb 0.00 in0.0 mm 0.00 in/hr0.0 mm/hr 0.00 in0.0 mm
10:42 AM 54.7°F12.6°C 36.0°F2.2°C 49% 2.9 mph ENE4.7 kmh ENE 0.9 mph1.4 kmh -338605.1 mb 0.00 in0.0 mm 0.00 in/hr0.0 mm/hr 0.00 in0.0 mm
10:47 AM 55.0°F12.8°C 36.1°F2.3°C 49% 4.0 mph ESE6.4 kmh ESE 2.0 mph3.2 kmh -338605.1 mb 0.00 in0.0 mm 0.00 in/hr0.0 mm/hr 0.00 in0.0 mm
10:52 AM 55.2°F12.9°C 36.0°F2.2°C 48% 2.9 mph N4.7 kmh N 4.9 mph7.9 kmh -338605.1 mb 0.00 in0.0 mm 0.00 in/hr0.0 mm/hr 0.00 in0.0 mm
10:57 AM 54.9°F12.7°C 35.6°F2.0°C 48% 4.0 mph NNE6.4 kmh NNE 2.0 mph3.2 kmh -338605.1 mb 0.00 in0.0 mm 0.00 in/hr0.0 mm/hr 0.00 in0.0 mm
11:02 AM 54.5°F12.5°C 35.2°F1.8°C 48% 2.9 mph NNE4.7 kmh NNE 0.9 mph1.4 kmh -338605.1 mb 0.00 in0.0 mm 0.00 in/hr0.0 mm/hr 0.00 in0.0 mm
11:07 AM 54.1°F12.3°C 35.4°F1.9°C 49% 2.0 mph NNE3.2 kmh NNE 2.0 mph3.2 kmh -338605.1 mb 0.00 in0.0 mm 0.00 in/hr0.0 mm/hr 0.00 in0.0 mm
11:12 AM 54.3°F12.4°C 35.6°F2.0°C 49% 2.0 mph NNE3.2 kmh NNE 0.9 mph1.4 kmh -338605.1 mb 0.00 in0.0 mm 0.00 in/hr0.0 mm/hr 0.00 in0.0 mm
11:17 AM 55.2°F12.9°C 36.0°F2.2°C 48% 2.0 mph NE3.2 kmh NE 0.9 mph1.4 kmh -338605.1 mb 0.00 in0.0 mm 0.00 in/hr0.0 mm/hr 0.00 in0.0 mm
11:22 AM 55.4°F13.0°C 35.4°F1.9°C 47% 2.0 mph NNE3.2 kmh NNE 2.0 mph3.2 kmh -338605.1 mb 0.00 in0.0 mm 0.00 in/hr0.0 mm/hr 0.00 in0.0 mm
11:27 AM 55.0°F12.8°C 35.8°F2.1°C 48% 2.0 mph NNE3.2 kmh NNE 6.9 mph11.1 kmh -338605.1 mb 0.00 in0.0 mm 0.00 in/hr0.0 mm/hr 0.00 in0.0 mm
11:32 AM 55.6°F13.1°C 36.1°F2.3°C 48% 4.0 mph N6.4 kmh N 6.0 mph9.7 kmh -338605.1 mb 0.00 in0.0 mm 0.00 in/hr0.0 mm/hr 0.00 in0.0 mm
11:37 AM 55.6°F13.1°C 35.6°F2.0°C 47% 6.0 mph N9.7 kmh N 4.0 mph6.4 kmh -338605.1 mb 0.00 in0.0 mm 0.00 in/hr0.0 mm/hr 0.00 in0.0 mm
11:42 AM 55.9°F13.3°C 36.0°F2.2°C 47% 4.0 mph N6.4 kmh N 2.0 mph3.2 kmh -338605.1 mb 0.00 in0.0 mm 0.00 in/hr0.0 mm/hr 0.00 in0.0 mm
11:47 AM 55.9°F13.3°C 36.0°F2.2°C 47% 2.9 mph N4.7 kmh N 2.0 mph3.2 kmh -338605.1 mb 0.00 in0.0 mm 0.00 in/hr0.0 mm/hr 0.00 in0.0 mm
11:52 AM 55.8°F13.2°C 35.2°F1.8°C 46% 2.9 mph N4.7 kmh N -- -338605.1 mb 0.00 in0.0 mm 0.00 in/hr0.0 mm/hr 0.00 in0.0 mm
11:57 AM 55.9°F13.3°C 35.4°F1.9°C 46% 2.0 mph NE3.2 kmh NE 4.9 mph7.9 kmh -338605.1 mb 0.00 in0.0 mm 0.00 in/hr0.0 mm/hr 0.00 in0.0 mm
12:02 PM 55.9°F13.3°C 35.4°F1.9°C 46% 4.0 mph N6.4 kmh N 4.9 mph7.9 kmh -338605.1 mb 0.00 in0.0 mm 0.00 in/hr0.0 mm/hr 0.00 in0.0 mm
12:07 PM 55.9°F13.3°C 35.4°F1.9°C 46% 4.9 mph NNE7.9 kmh NNE 2.9 mph4.7 kmh -338605.1 mb 0.00 in0.0 mm 0.00 in/hr0.0 mm/hr 0.00 in0.0 mm
12:12 PM 55.6°F13.1°C 35.1°F1.7°C 46% 4.0 mph NE6.4 kmh NE 4.0 mph6.4 kmh -338605.1 mb 0.00 in0.0 mm 0.00 in/hr0.0 mm/hr 0.00 in0.0 mm
12:17 PM 55.8°F13.2°C 35.2°F1.8°C 46% 2.9 mph NE4.7 kmh NE 0.9 mph1.4 kmh -338605.1 mb 0.00 in0.0 mm 0.00 in/hr0.0 mm/hr 0.00 in0.0 mm
12:22 PM 56.1°F13.4°C 35.6°F2.0°C 46% 4.0 mph NE6.4 kmh NE 8.1 mph13.0 kmh -338605.1 mb 0.00 in0.0 mm 0.00 in/hr0.0 mm/hr 0.00 in0.0 mm
12:27 PM 56.3°F13.5°C 35.8°F2.1°C 46% 6.0 mph NE9.7 kmh NE 2.9 mph4.7 kmh -338605.1 mb 0.00 in0.0 mm 0.00 in/hr0.0 mm/hr 0.00 in0.0 mm
12:32 PM 56.7°F13.7°C 36.1°F2.3°C 46% 6.0 mph NE9.7 kmh NE 2.0 mph3.2 kmh -338605.1 mb 0.00 in0.0 mm 0.00 in/hr0.0 mm/hr 0.00 in0.0 mm
12:37 PM 56.8°F13.8°C 35.2°F1.8°C 44% 4.9 mph NE7.9 kmh NE 2.0 mph3.2 kmh -338605.1 mb 0.00 in0.0 mm 0.00 in/hr0.0 mm/hr 0.00 in0.0 mm
12:42 PM 57.4°F14.1°C 35.6°F2.0°C 44% 4.9 mph E7.9 kmh E 0.9 mph1.4 kmh -338605.1 mb 0.00 in0.0 mm 0.00 in/hr0.0 mm/hr 0.00 in0.0 mm
12:47 PM 57.4°F14.1°C 35.6°F2.0°C 44% 4.0 mph E6.4 kmh E 0.9 mph1.4 kmh -338605.1 mb 0.00 in0.0 mm 0.00 in/hr0.0 mm/hr 0.00 in0.0 mm
12:52 PM 57.6°F14.2°C 35.8°F2.1°C 44% 4.0 mph 6.4 kmh 8.1 mph13.0 kmh -338605.1 mb 0.00 in0.0 mm 0.00 in/hr0.0 mm/hr 0.00 in0.0 mm
12:57 PM 57.4°F14.1°C 35.6°F2.0°C 44% 4.0 mph NE6.4 kmh NE 4.0 mph6.4 kmh -338605.1 mb 0.00 in0.0 mm 0.00 in/hr0.0 mm/hr 0.00 in0.0 mm
01:02 PM 57.0°F13.9°C 35.2°F1.8°C 44% 4.9 mph N7.9 kmh N 2.9 mph4.7 kmh -338605.1 mb 0.00 in0.0 mm 0.00 in/hr0.0 mm/hr 0.00 in0.0 mm
01:07 PM 56.8°F13.8°C 35.8°F2.1°C 45% 4.0 mph E6.4 kmh E 6.9 mph11.1 kmh -338605.1 mb 0.00 in0.0 mm 0.00 in/hr0.0 mm/hr 0.00 in0.0 mm
01:12 PM 57.0°F13.9°C 35.2°F1.8°C 44% 4.0 mph E6.4 kmh E 2.9 mph4.7 kmh -338605.1 mb 0.00 in0.0 mm 0.00 in/hr0.0 mm/hr 0.00 in0.0 mm
01:17 PM 57.4°F14.1°C 35.6°F2.0°C 44% 4.9 mph NE7.9 kmh NE 6.0 mph9.7 kmh -338605.1 mb 0.00 in0.0 mm 0.00 in/hr0.0 mm/hr 0.00 in0.0 mm
01:22 PM 57.4°F14.1°C 34.5°F1.4°C 42% 6.0 mph NNE9.7 kmh NNE 4.0 mph6.4 kmh -338605.1 mb 0.00 in0.0 mm 0.00 in/hr0.0 mm/hr 0.00 in0.0 mm
01:27 PM 56.8°F13.8°C 34.5°F1.4°C 43% 4.9 mph NE7.9 kmh NE 4.9 mph7.9 kmh -338605.1 mb 0.00 in0.0 mm 0.00 in/hr0.0 mm/hr 0.00 in0.0 mm
01:32 PM 56.5°F13.6°C 34.9°F1.6°C 44% 6.0 mph E9.7 kmh E 8.1 mph13.0 kmh -338605.1 mb 0.00 in0.0 mm 0.00 in/hr0.0 mm/hr 0.00 in0.0 mm
01:37 PM 56.7°F13.7°C 35.6°F2.0°C 45% 6.9 mph NE11.1 kmh NE 4.9 mph7.9 kmh -338605.1 mb 0.00 in0.0 mm 0.00 in/hr0.0 mm/hr 0.00 in0.0 mm
01:42 PM 56.7°F13.7°C 35.1°F1.7°C 44% 6.0 mph E9.7 kmh E 4.9 mph7.9 kmh -338605.1 mb 0.00 in0.0 mm 0.00 in/hr0.0 mm/hr 0.00 in0.0 mm
01:47 PM 56.5°F13.6°C 34.3°F1.3°C 43% 6.0 mph ENE9.7 kmh ENE 4.0 mph6.4 kmh -338605.1 mb 0.00 in0.0 mm 0.00 in/hr0.0 mm/hr 0.00 in0.0 mm
01:52 PM 56.5°F13.6°C 34.3°F1.3°C 43% 6.9 mph E11.1 kmh E 11.0 mph17.7 kmh -338605.1 mb 0.00 in0.0 mm 0.00 in/hr0.0 mm/hr 0.00 in0.0 mm
01:57 PM 56.1°F13.4°C 34.5°F1.4°C 44% 8.1 mph E13.0 kmh E 10.1 mph16.3 kmh -338605.1 mb 0.00 in0.0 mm 0.00 in/hr0.0 mm/hr 0.00 in0.0 mm
02:02 PM 55.9°F13.3°C 34.3°F1.3°C 44% 10.1 mph E16.3 kmh E 8.9 mph14.3 kmh -338605.1 mb 0.00 in0.0 mm 0.00 in/hr0.0 mm/hr 0.00 in0.0 mm
02:07 PM 55.9°F13.3°C 36.0°F2.2°C 47% 8.9 mph E14.3 kmh E 4.9 mph7.9 kmh -338605.1 mb 0.00 in0.0 mm 0.00 in/hr0.0 mm/hr 0.00 in0.0 mm
02:12 PM 56.3°F13.5°C 37.4°F3.0°C 49% 6.9 mph SE11.1 kmh SE 6.9 mph11.1 kmh -338605.1 mb 0.00 in0.0 mm 0.00 in/hr0.0 mm/hr 0.00 in0.0 mm
02:17 PM 56.3°F13.5°C 37.9°F3.3°C 50% 8.1 mph SE13.0 kmh SE 11.0 mph17.7 kmh -338605.1 mb 0.00 in0.0 mm 0.00 in/hr0.0 mm/hr 0.00 in0.0 mm
02:22 PM 56.1°F13.4°C 37.2°F2.9°C 49% 10.1 mph SE16.3 kmh SE 10.1 mph16.3 kmh -338605.1 mb 0.00 in0.0 mm 0.00 in/hr0.0 mm/hr 0.00 in0.0 mm
02:27 PM 55.6°F13.1°C 38.3°F3.5°C 52% 11.0 mph SSE17.7 kmh SSE 2.9 mph4.7 kmh -338605.1 mb 0.00 in0.0 mm 0.00 in/hr0.0 mm/hr 0.00 in0.0 mm
02:32 PM 55.2°F12.9°C 38.3°F3.5°C 53% 8.9 mph SE14.3 kmh SE 4.0 mph6.4 kmh -338605.1 mb 0.00 in0.0 mm 0.00 in/hr0.0 mm/hr 0.00 in0.0 mm
02:37 PM 55.4°F13.0°C 40.8°F4.9°C 58% 4.9 mph SE7.9 kmh SE 2.9 mph4.7 kmh -338605.1 mb 0.00 in0.0 mm 0.00 in/hr0.0 mm/hr 0.00 in0.0 mm
02:42 PM 55.2°F12.9°C 40.3°F4.6°C 57% 4.0 mph E6.4 kmh E 2.0 mph3.2 kmh -338605.1 mb 0.00 in0.0 mm 0.00 in/hr0.0 mm/hr 0.00 in0.0 mm
02:47 PM 54.7°F12.6°C 40.3°F4.6°C 58% 2.9 mph ENE4.7 kmh ENE 2.9 mph4.7 kmh -338605.1 mb 0.00 in0.0 mm 0.00 in/hr0.0 mm/hr 0.00 in0.0 mm
02:52 PM 54.3°F12.4°C 38.5°F3.6°C 55% 2.9 mph NE4.7 kmh NE 4.0 mph6.4 kmh -338605.1 mb 0.00 in0.0 mm 0.00 in/hr0.0 mm/hr 0.00 in0.0 mm
02:57 PM 54.1°F12.3°C 40.6°F4.8°C 60% 4.9 mph SE7.9 kmh SE 15.0 mph24.1 kmh -338605.1 mb 0.00 in0.0 mm 0.00 in/hr0.0 mm/hr 0.00 in0.0 mm
03:02 PM 53.4°F11.9°C 41.9°F5.5°C 65% 8.9 mph SE14.3 kmh SE 13.0 mph20.9 kmh -338605.1 mb 0.38 in9.7 mm 0.41 in/hr10.4 mm/hr 0.38 in9.7 mm
03:07 PM 52.5°F11.4°C 41.2°F5.1°C 65% 10.1 mph SE16.3 kmh SE 0.9 mph1.4 kmh -338605.1 mb 0.23 in5.8 mm 0.00 in/hr0.0 mm/hr 0.02 in0.5 mm
03:12 PM 52.3°F11.3°C 41.4°F5.2°C 66% 4.9 mph SE7.9 kmh SE 0.9 mph1.4 kmh -338605.1 mb 0.11 in2.8 mm 0.00 in/hr0.0 mm/hr 0.04 in1.0 mm
03:17 PM 52.3°F11.3°C 41.4°F5.2°C 66% 2.0 mph WSW3.2 kmh WSW -- -338605.1 mb 0.06 in1.5 mm 0.00 in/hr0.0 mm/hr 0.04 in1.0 mm
03:22 PM 52.0°F11.1°C 41.4°F5.2°C 67% 2.0 mph NE3.2 kmh NE 4.0 mph6.4 kmh -338605.1 mb 0.04 in1.0 mm 0.00 in/hr0.0 mm/hr 0.04 in1.0 mm
03:27 PM 51.4°F10.8°C 41.2°F5.1°C 68% 2.9 mph NNE4.7 kmh NNE 4.0 mph6.4 kmh -338605.1 mb 0.00 in0.0 mm 0.00 in/hr0.0 mm/hr 0.04 in1.0 mm
03:32 PM 51.1°F10.6°C 42.1°F5.6°C 71% 2.9 mph NNE4.7 kmh NNE 6.0 mph9.7 kmh -338605.1 mb 0.00 in0.0 mm 0.00 in/hr0.0 mm/hr 0.04 in1.0 mm
03:37 PM 50.9°F10.5°C 42.3°F5.7°C 72% 4.0 mph NNE6.4 kmh NNE 0.9 mph1.4 kmh -338605.1 mb 0.00 in0.0 mm 0.00 in/hr0.0 mm/hr 0.04 in1.0 mm
03:42 PM 50.7°F10.4°C 42.1°F5.6°C 72% 2.9 mph N4.7 kmh N 2.9 mph4.7 kmh -338605.1 mb 0.00 in0.0 mm 0.00 in/hr0.0 mm/hr 0.04 in1.0 mm
03:47 PM 50.4°F10.2°C 41.7°F5.4°C 72% 2.9 mph N4.7 kmh N 2.9 mph4.7 kmh -338605.1 mb 0.00 in0.0 mm 0.00 in/hr0.0 mm/hr 0.04 in1.0 mm
03:52 PM 50.2°F10.1°C 41.5°F5.3°C 72% 4.0 mph 6.4 kmh 4.0 mph6.4 kmh -338605.1 mb 0.00 in0.0 mm 0.00 in/hr0.0 mm/hr 0.04 in1.0 mm
03:57 PM 50.2°F10.1°C 42.3°F5.7°C 74% 2.9 mph NNE4.7 kmh NNE 2.0 mph3.2 kmh -338605.1 mb 0.00 in0.0 mm 0.00 in/hr0.0 mm/hr 0.04 in1.0 mm
04:02 PM 50.4°F10.2°C 42.4°F5.8°C 74% 2.0 mph NNE3.2 kmh NNE 2.0 mph3.2 kmh -338605.1 mb 0.00 in0.0 mm 0.00 in/hr0.0 mm/hr 0.04 in1.0 mm
04:07 PM 50.5°F10.3°C 42.6°F5.9°C 74% 2.0 mph ENE3.2 kmh ENE -- -338605.1 mb 0.00 in0.0 mm 0.00 in/hr0.0 mm/hr 0.05 in1.3 mm
04:12 PM 50.7°F10.4°C 42.8°F6.0°C 74% 2.0 mph SE3.2 kmh SE 4.9 mph7.9 kmh -338605.1 mb 0.00 in0.0 mm 0.00 in/hr0.0 mm/hr 0.05 in1.3 mm
04:17 PM 50.9°F10.5°C 41.5°F5.3°C 70% 4.0 mph S6.4 kmh S 2.9 mph4.7 kmh -338605.1 mb 0.00 in0.0 mm 0.00 in/hr0.0 mm/hr 0.05 in1.3 mm
04:22 PM 50.7°F10.4°C 41.7°F5.4°C 71% 6.0 mph SSW9.7 kmh SSW 4.0 mph6.4 kmh -338605.1 mb 0.00 in0.0 mm 0.00 in/hr0.0 mm/hr 0.05 in1.3 mm
04:27 PM 50.5°F10.3°C 41.2°F5.1°C 70% 4.0 mph WNW6.4 kmh WNW 4.0 mph6.4 kmh -338605.1 mb 0.00 in0.0 mm 0.00 in/hr0.0 mm/hr 0.05 in1.3 mm
04:32 PM 50.2°F10.1°C 41.2°F5.1°C 71% 4.0 mph NW6.4 kmh NW 4.9 mph7.9 kmh -338605.1 mb 0.00 in0.0 mm 0.00 in/hr0.0 mm/hr 0.05 in1.3 mm
04:37 PM 49.6°F9.8°C 41.0°F5.0°C 72% 4.9 mph WNW7.9 kmh WNW 6.9 mph11.1 kmh -338605.1 mb 0.00 in0.0 mm 0.00 in/hr0.0 mm/hr 0.05 in1.3 mm
04:42 PM 49.3°F9.6°C 41.4°F5.2°C 74% 6.0 mph WNW9.7 kmh WNW 6.0 mph9.7 kmh -338605.1 mb 0.00 in0.0 mm 0.00 in/hr0.0 mm/hr 0.05 in1.3 mm
04:47 PM 48.9°F9.4°C 41.7°F5.4°C 76% 6.9 mph NW11.1 kmh NW 6.9 mph11.1 kmh -338605.1 mb 0.00 in0.0 mm 0.00 in/hr0.0 mm/hr 0.06 in1.5 mm
04:52 PM 48.6°F9.2°C 41.7°F5.4°C 77% 8.1 mph NW13.0 kmh NW 11.0 mph17.7 kmh -338605.1 mb 0.00 in0.0 mm 0.00 in/hr0.0 mm/hr 0.06 in1.5 mm
04:57 PM 48.0°F8.9°C 41.5°F5.3°C 78% 8.9 mph NW14.3 kmh NW 11.0 mph17.7 kmh -338605.1 mb 0.00 in0.0 mm 0.00 in/hr0.0 mm/hr 0.06 in1.5 mm
05:02 PM 47.8°F8.8°C 41.9°F5.5°C 80% 10.1 mph NW16.3 kmh NW 11.0 mph17.7 kmh -338605.1 mb 0.00 in0.0 mm 0.00 in/hr0.0 mm/hr 0.06 in1.5 mm
05:07 PM 47.5°F8.6°C 41.5°F5.3°C 80% 10.1 mph NW16.3 kmh NW 13.0 mph20.9 kmh -338605.1 mb 0.00 in0.0 mm 0.00 in/hr0.0 mm/hr 0.06 in1.5 mm
05:12 PM 46.8°F8.2°C 41.2°F5.1°C 81% 10.1 mph NW16.3 kmh NW 8.1 mph13.0 kmh -338605.1 mb 0.00 in0.0 mm 0.00 in/hr0.0 mm/hr 0.06 in1.5 mm
05:17 PM 46.6°F8.1°C 41.4°F5.2°C 82% 8.9 mph NW14.3 kmh NW 13.0 mph20.9 kmh -338605.1 mb 0.00 in0.0 mm 0.00 in/hr0.0 mm/hr 0.07 in1.8 mm
05:22 PM 46.0°F7.8°C 40.8°F4.9°C 82% 10.1 mph NW16.3 kmh NW 12.1 mph19.5 kmh -338605.1 mb 0.00 in0.0 mm 0.00 in/hr0.0 mm/hr 0.07 in1.8 mm
05:27 PM 46.0°F7.8°C 41.2°F5.1°C 83% 11.0 mph NW17.7 kmh NW 8.9 mph14.3 kmh -338605.1 mb 0.00 in0.0 mm 0.00 in/hr0.0 mm/hr 0.07 in1.8 mm
05:32 PM 45.9°F7.7°C 41.4°F5.2°C 84% 10.1 mph NW16.3 kmh NW 12.1 mph19.5 kmh -338605.1 mb 0.04 in1.0 mm 0.48 in/hr12.2 mm/hr 0.08 in2.0 mm
05:37 PM 45.7°F7.6°C 41.2°F5.1°C 84% 8.9 mph NW14.3 kmh NW 10.1 mph16.3 kmh -338605.1 mb 0.08 in2.0 mm 0.48 in/hr12.2 mm/hr 0.08 in2.0 mm
05:42 PM 45.5°F7.5°C 40.6°F4.8°C 83% 10.1 mph NW16.3 kmh NW 11.0 mph17.7 kmh -338605.1 mb 0.08 in2.0 mm 0.00 in/hr0.0 mm/hr 0.09 in2.3 mm
05:47 PM 45.7°F7.6°C 41.2°F5.1°C 84% 10.1 mph NW16.3 kmh NW 8.1 mph13.0 kmh -338605.1 mb 0.05 in1.3 mm 0.00 in/hr0.0 mm/hr 0.09 in2.3 mm
05:52 PM 45.7°F7.6°C 41.2°F5.1°C 84% 8.9 mph NW14.3 kmh NW 10.1 mph16.3 kmh -338605.1 mb 0.04 in1.0 mm 0.00 in/hr0.0 mm/hr 0.09 in2.3 mm
05:57 PM 45.3°F7.4°C 40.8°F4.9°C 84% 8.9 mph NW14.3 kmh NW 8.9 mph14.3 kmh -338605.1 mb 0.00 in0.0 mm 0.00 in/hr0.0 mm/hr 0.09 in2.3 mm
06:02 PM 45.3°F7.4°C 40.5°F4.7°C 83% 10.1 mph NNW16.3 kmh NNW 8.1 mph13.0 kmh -338605.1 mb 0.00 in0.0 mm 0.00 in/hr0.0 mm/hr 0.09 in2.3 mm
06:07 PM 45.1°F7.3°C 40.6°F4.8°C 84% 8.9 mph NNW14.3 kmh NNW 8.1 mph13.0 kmh -338605.1 mb 0.00 in0.0 mm 0.00 in/hr0.0 mm/hr 0.09 in2.3 mm
06:12 PM 45.0°F7.2°C 40.1°F4.5°C 83% 8.9 mph NW14.3 kmh NW 10.1 mph16.3 kmh -338605.1 mb 0.00 in0.0 mm 0.00 in/hr0.0 mm/hr 0.09 in2.3 mm
06:17 PM 45.0°F7.2°C 40.5°F4.7°C 84% 10.1 mph NW16.3 kmh NW 10.1 mph16.3 kmh -338605.1 mb 0.00 in0.0 mm 0.00 in/hr0.0 mm/hr 0.09 in2.3 mm
06:22 PM 45.0°F7.2°C 40.1°F4.5°C 83% 10.1 mph NW16.3 kmh NW 6.9 mph11.1 kmh -338605.1 mb 0.00 in0.0 mm 0.00 in/hr0.0 mm/hr 0.09 in2.3 mm
06:27 PM 45.0°F7.2°C 40.1°F4.5°C 83% 10.1 mph NNW16.3 kmh NNW 8.1 mph13.0 kmh -338605.1 mb 0.00 in0.0 mm 0.00 in/hr0.0 mm/hr 0.09 in2.3 mm
06:32 PM 45.0°F7.2°C 40.1°F4.5°C 83% 8.9 mph NNW14.3 kmh NNW 8.9 mph14.3 kmh -338605.1 mb 0.00 in0.0 mm 0.00 in/hr0.0 mm/hr 0.09 in2.3 mm
06:37 PM 45.0°F7.2°C 40.1°F4.5°C 83% 8.1 mph NNW13.0 kmh NNW 8.9 mph14.3 kmh -338605.1 mb 0.00 in0.0 mm 0.00 in/hr0.0 mm/hr 0.09 in2.3 mm
06:42 PM 45.0°F7.2°C 40.1°F4.5°C 83% 6.9 mph NNW11.1 kmh NNW 6.0 mph9.7 kmh -338605.1 mb 0.00 in0.0 mm 0.00 in/hr0.0 mm/hr 0.09 in2.3 mm
06:47 PM 45.0°F7.2°C 40.5°F4.7°C 84% 6.0 mph N9.7 kmh N 4.0 mph6.4 kmh -338605.1 mb 0.00 in0.0 mm 0.00 in/hr0.0 mm/hr 0.09 in2.3 mm
06:52 PM 45.1°F7.3°C 40.6°F4.8°C 84% 4.9 mph N7.9 kmh N 2.9 mph4.7 kmh -338605.1 mb 0.00 in0.0 mm 0.00 in/hr0.0 mm/hr 0.09 in2.3 mm
06:57 PM 45.1°F7.3°C 40.6°F4.8°C 84% 4.0 mph N6.4 kmh N 2.9 mph4.7 kmh -338605.1 mb 0.00 in0.0 mm 0.00 in/hr0.0 mm/hr 0.09 in2.3 mm
07:02 PM 45.5°F7.5°C 41.2°F5.1°C 85% 4.0 mph NNE6.4 kmh NNE 4.0 mph6.4 kmh -338605.1 mb 0.00 in0.0 mm 0.00 in/hr0.0 mm/hr 0.09 in2.3 mm
07:07 PM 45.7°F7.6°C 41.7°F5.4°C 86% 4.0 mph NNE6.4 kmh NNE 6.0 mph9.7 kmh -338605.1 mb 0.00 in0.0 mm 0.00 in/hr0.0 mm/hr 0.09 in2.3 mm
07:12 PM 45.9°F7.7°C 41.9°F5.5°C 86% 4.0 mph N6.4 kmh N 6.0 mph9.7 kmh -338605.1 mb 0.00 in0.0 mm 0.00 in/hr0.0 mm/hr 0.09 in2.3 mm
07:17 PM 45.7°F7.6°C 41.7°F5.4°C 86% 4.9 mph NNW7.9 kmh NNW 4.0 mph6.4 kmh -338605.1 mb 0.00 in0.0 mm 0.00 in/hr0.0 mm/hr 0.10 in2.5 mm
07:22 PM 45.7°F7.6°C 41.4°F5.2°C 85% 4.9 mph NNW7.9 kmh NNW 4.0 mph6.4 kmh -338605.1 mb 0.00 in0.0 mm 0.00 in/hr0.0 mm/hr 0.10 in2.5 mm
07:27 PM 45.7°F7.6°C 41.4°F5.2°C 85% 4.9 mph NNW7.9 kmh NNW 6.9 mph11.1 kmh -338605.1 mb 0.00 in0.0 mm 0.00 in/hr0.0 mm/hr 0.10 in2.5 mm
07:32 PM 45.5°F7.5°C 41.2°F5.1°C 85% 4.9 mph NNW7.9 kmh NNW 2.9 mph4.7 kmh -338605.1 mb 0.00 in0.0 mm 0.00 in/hr0.0 mm/hr 0.10 in2.5 mm
07:37 PM 45.3°F7.4°C 41.4°F5.2°C 86% 4.9 mph NNW7.9 kmh NNW 4.0 mph6.4 kmh -338605.1 mb 0.00 in0.0 mm 0.00 in/hr0.0 mm/hr 0.10 in2.5 mm
07:42 PM 45.3°F7.4°C 41.4°F5.2°C 86% 4.9 mph NW7.9 kmh NW 6.0 mph9.7 kmh -338605.1 mb 0.00 in0.0 mm 0.00 in/hr0.0 mm/hr 0.10 in2.5 mm
07:47 PM 45.3°F7.4°C 41.4°F5.2°C 86% 4.9 mph NNW7.9 kmh NNW 2.9 mph4.7 kmh -338605.1 mb 0.00 in0.0 mm 0.00 in/hr0.0 mm/hr 0.10 in2.5 mm
07:52 PM 45.5°F7.5°C 41.5°F5.3°C 86% 4.0 mph NW6.4 kmh NW 4.0 mph6.4 kmh -338605.1 mb 0.00 in0.0 mm 0.00 in/hr0.0 mm/hr 0.10 in2.5 mm
07:57 PM 45.7°F7.6°C 41.7°F5.4°C 86% 2.9 mph NW4.7 kmh NW 2.9 mph4.7 kmh -338605.1 mb 0.00 in0.0 mm 0.00 in/hr0.0 mm/hr 0.10 in2.5 mm
08:02 PM 45.7°F7.6°C 41.7°F5.4°C 86% 4.0 mph NW6.4 kmh NW 2.9 mph4.7 kmh -338605.1 mb 0.00 in0.0 mm 0.00 in/hr0.0 mm/hr 0.10 in2.5 mm
08:07 PM 45.9°F7.7°C 41.9°F5.5°C 86% 2.9 mph NW4.7 kmh NW 0.9 mph1.4 kmh -338605.1 mb 0.00 in0.0 mm 0.00 in/hr0.0 mm/hr 0.10 in2.5 mm
08:12 PM 46.0°F7.8°C 42.1°F5.6°C 86% 0.9 mph NW1.4 kmh NW -- -338605.1 mb 0.00 in0.0 mm 0.00 in/hr0.0 mm/hr 0.10 in2.5 mm
08:17 PM 46.8°F8.2°C 42.4°F5.8°C 85% 0.9 mph NW1.4 kmh NW -- -338605.1 mb 0.00 in0.0 mm 0.00 in/hr0.0 mm/hr 0.10 in2.5 mm
08:22 PM 47.5°F8.6°C 42.6°F5.9°C 83% 0.9 mph NW1.4 kmh NW -- -338605.1 mb 0.00 in0.0 mm 0.00 in/hr0.0 mm/hr 0.10 in2.5 mm
08:27 PM 47.7°F8.7°C 42.4°F5.8°C 82% Calm Calm -- -338605.1 mb 0.00 in0.0 mm 0.00 in/hr0.0 mm/hr 0.10 in2.5 mm
08:32 PM 47.5°F8.6°C 41.9°F5.5°C 81% 0.9 mph NW1.4 kmh NW 2.0 mph3.2 kmh -338605.1 mb 0.00 in0.0 mm 0.00 in/hr0.0 mm/hr 0.10 in2.5 mm
08:37 PM 47.1°F8.4°C 41.9°F5.5°C 82% 0.9 mph NW1.4 kmh NW 0.9 mph1.4 kmh -338605.1 mb 0.00 in0.0 mm 0.00 in/hr0.0 mm/hr 0.10 in2.5 mm
08:42 PM 47.1°F8.4°C 41.9°F5.5°C 82% 0.9 mph NW1.4 kmh NW -- -338605.1 mb 0.00 in0.0 mm 0.00 in/hr0.0 mm/hr 0.10 in2.5 mm
08:47 PM 46.9°F8.3°C 41.7°F5.4°C 82% 0.9 mph NW1.4 kmh NW 0.9 mph1.4 kmh -338605.1 mb 0.00 in0.0 mm 0.00 in/hr0.0 mm/hr 0.10 in2.5 mm
08:52 PM 46.9°F8.3°C 42.1°F5.6°C 83% 2.0 mph NW3.2 kmh NW 2.0 mph3.2 kmh -338605.1 mb 0.00 in0.0 mm 0.00 in/hr0.0 mm/hr 0.10 in2.5 mm
08:57 PM 46.9°F8.3°C 42.1°F5.6°C 83% 2.0 mph NW3.2 kmh NW -- -338605.1 mb 0.00 in0.0 mm 0.00 in/hr0.0 mm/hr 0.10 in2.5 mm
09:02 PM 47.1°F8.4°C 42.3°F5.7°C 83% 0.9 mph NW1.4 kmh NW -- -338605.1 mb 0.00 in0.0 mm 0.00 in/hr0.0 mm/hr 0.10 in2.5 mm
09:07 PM 47.1°F8.4°C 42.3°F5.7°C 83% Calm Calm -- -338605.1 mb 0.00 in0.0 mm 0.00 in/hr0.0 mm/hr 0.10 in2.5 mm
09:12 PM 47.1°F8.4°C 41.9°F5.5°C 82% Calm Calm -- -338605.1 mb 0.00 in0.0 mm 0.00 in/hr0.0 mm/hr 0.10 in2.5 mm
09:17 PM 47.1°F8.4°C 42.3°F5.7°C 83% Calm Calm -- -338605.1 mb 0.00 in0.0 mm 0.00 in/hr0.0 mm/hr 0.10 in2.5 mm
09:22 PM 47.5°F8.6°C 42.6°F5.9°C 83% Calm Calm 0.9 mph1.4 kmh -338605.1 mb 0.00 in0.0 mm 0.00 in/hr0.0 mm/hr 0.10 in2.5 mm
09:27 PM 47.7°F8.7°C 42.4°F5.8°C 82% 0.9 mph NW1.4 kmh NW -- -338605.1 mb 0.00 in0.0 mm 0.00 in/hr0.0 mm/hr 0.10 in2.5 mm
09:32 PM 47.8°F8.8°C 42.6°F5.9°C 82% 0.9 mph NW1.4 kmh NW 2.0 mph3.2 kmh -338605.1 mb 0.00 in0.0 mm 0.00 in/hr0.0 mm/hr 0.10 in2.5 mm
09:37 PM 48.0°F8.9°C 42.8°F6.0°C 82% 0.9 mph NW1.4 kmh NW 0.9 mph1.4 kmh -338605.1 mb 0.00 in0.0 mm 0.00 in/hr0.0 mm/hr 0.10 in2.5 mm
09:42 PM 48.4°F9.1°C 42.8°F6.0°C 81% 0.9 mph WNW1.4 kmh WNW 2.0 mph3.2 kmh -338605.1 mb 0.00 in0.0 mm 0.00 in/hr0.0 mm/hr 0.10 in2.5 mm
09:47 PM 48.4°F9.1°C 42.8°F6.0°C 81% 0.9 mph W1.4 kmh W 0.9 mph1.4 kmh -338605.1 mb 0.00 in0.0 mm 0.00 in/hr0.0 mm/hr 0.10 in2.5 mm
09:52 PM 48.4°F9.1°C 42.8°F6.0°C 81% 2.0 mph W3.2 kmh W 2.0 mph3.2 kmh -338605.1 mb 0.00 in0.0 mm 0.00 in/hr0.0 mm/hr 0.10 in2.5 mm
09:57 PM 48.6°F9.2°C 43.0°F6.1°C 81% 2.0 mph S3.2 kmh S 2.9 mph4.7 kmh -338605.1 mb 0.00 in0.0 mm 0.00 in/hr0.0 mm/hr 0.10 in2.5 mm
10:02 PM 48.7°F9.3°C 42.8°F6.0°C 80% 2.0 mph SSE3.2 kmh SSE 2.9 mph4.7 kmh -338605.1 mb 0.00 in0.0 mm 0.00 in/hr0.0 mm/hr 0.10 in2.5 mm
10:07 PM 48.9°F9.4°C 42.6°F5.9°C 79% 2.9 mph SSE4.7 kmh SSE 2.9 mph4.7 kmh -338605.1 mb 0.00 in0.0 mm 0.00 in/hr0.0 mm/hr 0.10 in2.5 mm
10:12 PM 48.9°F9.4°C 42.6°F5.9°C 79% 2.0 mph SSW3.2 kmh SSW 0.9 mph1.4 kmh -338605.1 mb 0.00 in0.0 mm 0.00 in/hr0.0 mm/hr 0.10 in2.5 mm
10:17 PM 48.9°F9.4°C 43.0°F6.1°C 80% 2.9 mph SSW4.7 kmh SSW 4.0 mph6.4 kmh -338605.1 mb 0.00 in0.0 mm 0.00 in/hr0.0 mm/hr 0.10 in2.5 mm
10:22 PM 48.9°F9.4°C 42.6°F5.9°C 79% 2.9 mph S4.7 kmh S 4.0 mph6.4 kmh -338605.1 mb 0.00 in0.0 mm 0.00 in/hr0.0 mm/hr 0.10 in2.5 mm
10:27 PM 48.9°F9.4°C 42.6°F5.9°C 79% 2.9 mph S4.7 kmh S 2.0 mph3.2 kmh -338605.1 mb 0.00 in0.0 mm 0.00 in/hr0.0 mm/hr 0.10 in2.5 mm
10:32 PM 48.9°F9.4°C 42.4°F5.8°C 78% 2.9 mph S4.7 kmh S 2.0 mph3.2 kmh -338605.1 mb 0.00 in0.0 mm 0.00 in/hr0.0 mm/hr 0.10 in2.5 mm
10:37 PM 49.1°F9.5°C 42.6°F5.9°C 78% 2.0 mph S3.2 kmh S -- -338605.1 mb 0.00 in0.0 mm 0.00 in/hr0.0 mm/hr 0.10 in2.5 mm
10:42 PM 49.1°F9.5°C 42.6°F5.9°C 78% 0.9 mph S1.4 kmh S 2.9 mph4.7 kmh -338605.1 mb 0.00 in0.0 mm 0.00 in/hr0.0 mm/hr 0.10 in2.5 mm
10:47 PM 49.3°F9.6°C 42.8°F6.0°C 78% 0.9 mph S1.4 kmh S -- -338605.1 mb 0.00 in0.0 mm 0.00 in/hr0.0 mm/hr 0.10 in2.5 mm
10:52 PM 49.3°F9.6°C 42.8°F6.0°C 78% 0.9 mph S1.4 kmh S 2.9 mph4.7 kmh -338605.1 mb 0.00 in0.0 mm 0.00 in/hr0.0 mm/hr 0.10 in2.5 mm
10:57 PM 49.3°F9.6°C 42.4°F5.8°C 77% 0.9 mph S1.4 kmh S -- -338605.1 mb 0.00 in0.0 mm 0.00 in/hr0.0 mm/hr 0.10 in2.5 mm
11:02 PM 49.1°F9.5°C 42.6°F5.9°C 78% 0.9 mph S1.4 kmh S -- -338605.1 mb 0.00 in0.0 mm 0.00 in/hr0.0 mm/hr 0.10 in2.5 mm
11:07 PM 49.3°F9.6°C 42.8°F6.0°C 78% 0.9 mph S1.4 kmh S -- -338605.1 mb 0.00 in0.0 mm 0.00 in/hr0.0 mm/hr 0.10 in2.5 mm
11:12 PM 49.3°F9.6°C 42.4°F5.8°C 77% Calm Calm 0.9 mph1.4 kmh -338605.1 mb 0.00 in0.0 mm 0.00 in/hr0.0 mm/hr 0.10 in2.5 mm
11:17 PM 49.3°F9.6°C 42.4°F5.8°C 77% Calm Calm -- -338605.1 mb 0.00 in0.0 mm 0.00 in/hr0.0 mm/hr 0.10 in2.5 mm
11:22 PM 49.3°F9.6°C 42.4°F5.8°C 77% Calm Calm -- -338605.1 mb 0.00 in0.0 mm 0.00 in/hr0.0 mm/hr 0.10 in2.5 mm
11:27 PM 49.3°F9.6°C 42.1°F5.6°C 76% Calm Calm -- -338605.1 mb 0.00 in0.0 mm 0.00 in/hr0.0 mm/hr 0.10 in2.5 mm
11:32 PM 49.5°F9.7°C 42.3°F5.7°C 76% Calm Calm -- -338605.1 mb 0.00 in0.0 mm 0.00 in/hr0.0 mm/hr 0.10 in2.5 mm
11:37 PM 49.5°F9.7°C 42.3°F5.7°C 76% Calm Calm -- -338605.1 mb 0.00 in0.0 mm 0.00 in/hr0.0 mm/hr 0.10 in2.5 mm
11:42 PM 49.5°F9.7°C 42.3°F5.7°C 76% Calm Calm -- -338605.1 mb 0.00 in0.0 mm 0.00 in/hr0.0 mm/hr 0.10 in2.5 mm
11:47 PM 49.5°F9.7°C 42.3°F5.7°C 76% Calm Calm -- -338605.1 mb 0.00 in0.0 mm 0.00 in/hr0.0 mm/hr 0.10 in2.5 mm
11:52 PM 49.1°F9.5°C 41.5°F5.3°C 75% Calm Calm 2.0 mph3.2 kmh -338605.1 mb 0.00 in0.0 mm 0.00 in/hr0.0 mm/hr 0.10 in2.5 mm
11:57 PM 48.7°F9.3°C 41.5°F5.3°C 76% 0.9 mph SW1.4 kmh SW 2.0 mph3.2 kmh -338605.1 mb 0.00 in0.0 mm 0.00 in/hr0.0 mm/hr 0.10 in2.5 mm